createdAt,value
2023-02-14T00:00:22.571Z,0.21
2023-02-14T00:02:49.642Z,0.55
2023-02-14T00:05:17.842Z,0.49
2023-02-14T00:07:44.469Z,0.47
2023-02-14T00:10:11.262Z,0.44
2023-02-14T00:12:37.902Z,0.40
2023-02-14T00:15:05.607Z,-0.72
2023-02-14T00:17:32.204Z,0.38
2023-02-14T00:19:58.715Z,0.37
2023-02-14T00:22:26.712Z,0.38
2023-02-14T00:24:53.238Z,0.35
2023-02-14T00:27:20.372Z,0.10
2023-02-14T00:29:46.981Z,0.23
2023-02-14T00:32:13.913Z,0.25
2023-02-14T00:34:40.728Z,0.22
2023-02-14T00:37:10.266Z,-0.03
2023-02-14T00:39:38.385Z,0.18
2023-02-14T00:42:06.003Z,0.14
2023-02-14T00:44:32.849Z,0.13
2023-02-14T00:46:59.700Z,0.09
2023-02-14T00:49:26.277Z,0.06
2023-02-14T00:51:52.969Z,0.07
2023-02-14T00:54:19.878Z,0.04
2023-02-14T00:56:47.851Z,-0.06
2023-02-14T00:59:14.463Z,-0.24
2023-02-14T01:01:41.770Z,0.00
2023-02-14T01:04:09.632Z,0.02
2023-02-14T01:06:36.788Z,0.08
2023-02-14T01:09:03.838Z,0.11
2023-02-14T01:11:32.756Z,-0.12
2023-02-14T01:14:01.526Z,0.02
2023-02-14T01:16:29.330Z,-0.03
2023-02-14T01:18:58.372Z,-0.07
2023-02-14T01:21:26.965Z,-0.10
2023-02-14T01:23:58.027Z,-0.08
2023-02-14T01:26:26.465Z,-0.66
2023-02-14T01:28:53.431Z,-0.26
2023-02-14T01:31:23.357Z,-0.28
2023-02-14T01:33:50.939Z,-0.32
2023-02-14T01:36:20.273Z,-0.33
2023-02-14T01:38:47.292Z,-0.33
2023-02-14T01:41:14.146Z,-0.32
2023-02-14T01:43:56.913Z,-0.50
2023-02-14T01:46:26.622Z,-0.43
2023-02-14T01:48:56.538Z,-0.34
2023-02-14T01:51:24.005Z,-0.36
2023-02-14T01:53:52.171Z,-0.29
2023-02-14T01:56:27.391Z,-0.32
2023-02-14T01:58:59.052Z,-0.73
2023-02-14T02:01:28.181Z,-0.46
2023-02-14T02:03:57.387Z,-0.49
2023-02-14T02:06:29.305Z,-0.84
2023-02-14T02:09:00.492Z,-0.55
2023-02-14T02:11:29.058Z,-0.56
2023-02-14T02:13:55.882Z,-0.56
2023-02-14T02:16:42.189Z,-0.52
2023-02-14T02:19:47.195Z,-0.43
2023-02-14T02:22:37.366Z,-0.51
2023-02-14T02:25:18.864Z,-0.50
2023-02-14T02:28:16.237Z,-0.46
2023-02-14T02:31:18.293Z,-0.60
2023-02-14T02:34:06.857Z,-1.00
2023-02-14T02:36:58.650Z,-0.63
2023-02-14T02:39:40.290Z,-0.67
2023-02-14T02:42:17.565Z,-0.73
2023-02-14T02:44:50.826Z,-0.76
2023-02-14T02:47:26.576Z,-0.83
2023-02-14T02:50:02.629Z,-0.78
2023-02-14T02:52:39.712Z,-0.80
2023-02-14T02:55:11.679Z,-0.79
2023-02-14T02:57:42.457Z,-0.79
2023-02-14T03:00:15.155Z,-0.79
2023-02-14T03:02:46.658Z,-1.09
2023-02-14T03:05:13.498Z,-0.93
2023-02-14T03:07:41.430Z,-0.86
2023-02-14T03:10:13.476Z,-0.82
2023-02-14T03:13:05.440Z,-0.92
2023-02-14T03:15:50.832Z,-0.90
2023-02-14T03:18:32.195Z,-0.90
2023-02-14T03:21:10.082Z,-0.92
2023-02-14T03:23:48.719Z,-0.93
2023-02-14T03:26:18.391Z,-0.97
2023-02-14T03:28:52.958Z,-0.99
2023-02-14T03:31:29.171Z,-1.01
2023-02-14T03:34:00.981Z,-1.01
2023-02-14T03:36:31.391Z,-1.02
2023-02-14T03:39:05.797Z,-1.04
2023-02-14T03:41:38.186Z,-1.05
2023-02-14T03:44:08.044Z,-1.48
2023-02-14T03:46:39.594Z,-1.07
2023-02-14T03:49:11.438Z,-1.16
2023-02-14T03:51:39.144Z,-1.09
2023-02-14T03:54:10.443Z,-1.26
2023-02-14T03:56:41.500Z,-1.10
2023-02-14T03:59:13.573Z,-1.18
2023-02-14T04:01:45.059Z,-1.12
2023-02-14T04:04:16.656Z,-1.14
2023-02-14T04:06:43.856Z,-1.20
2023-02-14T04:09:12.189Z,-1.23
2023-02-14T04:11:39.101Z,-1.34
2023-02-14T04:14:06.050Z,-1.60
2023-02-14T04:16:33.474Z,-1.26
2023-02-14T04:19:00.176Z,-1.29
2023-02-14T04:21:27.156Z,-1.53
2023-02-14T04:23:53.718Z,-1.29
2023-02-14T04:26:21.705Z,-1.31
2023-02-14T04:28:48.263Z,-2.28
2023-02-14T04:31:15.272Z,-1.33
2023-02-14T04:33:41.963Z,-1.31
2023-02-14T04:36:08.982Z,-1.30
2023-02-14T04:38:35.517Z,-1.26
2023-02-14T04:41:02.579Z,-1.27
2023-02-14T04:43:30.673Z,-1.27
2023-02-14T04:45:57.254Z,-1.47
2023-02-14T04:48:23.840Z,-1.31
2023-02-14T04:50:53.759Z,-1.33
2023-02-14T04:53:20.507Z,-1.35
2023-02-14T04:55:48.801Z,-1.34
2023-02-14T04:58:16.153Z,-1.56
2023-02-14T05:00:44.051Z,-1.36
2023-02-14T05:03:10.693Z,-1.39
2023-02-14T05:05:37.637Z,-1.51
2023-02-14T05:08:04.307Z,-1.42
2023-02-14T05:10:30.926Z,-1.80
2023-02-14T05:12:57.452Z,-1.43
2023-02-14T05:15:23.974Z,-1.43
2023-02-14T05:17:52.123Z,-1.46
2023-02-14T05:20:18.844Z,-1.70
2023-02-14T05:22:45.411Z,-1.74
2023-02-14T05:25:11.942Z,-1.50
2023-02-14T05:27:38.777Z,-1.93
2023-02-14T05:30:06.688Z,-1.56
2023-02-14T05:32:33.346Z,-1.57
2023-02-14T05:35:01.477Z,-1.58
2023-02-14T05:37:28.875Z,-1.56
2023-02-14T05:39:55.720Z,-1.56
2023-02-14T05:42:22.343Z,-1.56
2023-02-14T05:44:49.044Z,-1.85
2023-02-14T05:47:15.586Z,-1.61
2023-02-14T05:49:42.165Z,-1.72
2023-02-14T05:52:10.107Z,-1.63
2023-02-14T05:54:36.736Z,-1.58
2023-02-14T05:57:03.637Z,-1.76
2023-02-14T05:59:30.168Z,-1.60
2023-02-14T06:01:57.012Z,-1.64
2023-02-14T06:04:24.014Z,-1.63
2023-02-14T06:06:50.568Z,-1.83
2023-02-14T06:09:18.568Z,-1.78
2023-02-14T06:11:45.149Z,-1.68
2023-02-14T06:14:11.713Z,-1.68
2023-02-14T06:16:38.389Z,-1.66
2023-02-14T06:19:05.028Z,-1.70
2023-02-14T06:21:31.626Z,-1.70
2023-02-14T06:23:59.136Z,-1.68
2023-02-14T06:26:27.380Z,-1.61
2023-02-14T06:28:53.983Z,-1.66
2023-02-14T06:31:20.706Z,-2.03
2023-02-14T06:33:47.384Z,-1.69
2023-02-14T06:36:14.060Z,-1.70
2023-02-14T06:38:40.868Z,-1.71
2023-02-14T06:41:09.345Z,-1.72
2023-02-14T06:43:38.860Z,-1.71
2023-02-14T06:46:05.690Z,-1.71
2023-02-14T06:48:32.554Z,-1.90
2023-02-14T06:51:00.852Z,-1.72
2023-02-14T06:53:27.791Z,-2.12
2023-02-14T06:55:54.598Z,-1.73
2023-02-14T06:58:21.754Z,-1.71
2023-02-14T07:00:49.896Z,-1.71
2023-02-14T07:03:16.633Z,-1.68
2023-02-14T07:05:43.518Z,-1.70
2023-02-14T07:08:11.086Z,-1.67
2023-02-14T07:10:37.798Z,-1.66
2023-02-14T07:13:04.779Z,-1.61
2023-02-14T07:15:31.564Z,-1.61
2023-02-14T07:17:59.688Z,-1.58
2023-02-14T07:20:26.368Z,-1.57
2023-02-14T07:22:52.898Z,-1.51
2023-02-14T07:25:19.847Z,-1.67
2023-02-14T07:27:46.861Z,-1.48
2023-02-14T07:30:14.094Z,-1.42
2023-02-14T07:32:41.381Z,-1.43
2023-02-14T07:35:10.088Z,-1.40
2023-02-14T07:37:36.779Z,-1.39
2023-02-14T07:40:05.333Z,-1.39
2023-02-14T07:42:32.916Z,-1.39
2023-02-14T07:45:04.848Z,-1.37
2023-02-14T07:47:33.530Z,-1.29
2023-02-14T07:50:00.221Z,-1.28
2023-02-14T07:52:28.156Z,-1.22
2023-02-14T07:54:54.672Z,-1.18
2023-02-14T07:57:21.390Z,-1.11
2023-02-14T07:59:47.908Z,-1.33
2023-02-14T08:02:14.526Z,-1.00
2023-02-14T08:04:41.195Z,-0.97
2023-02-14T08:07:07.861Z,-0.87
2023-02-14T08:09:35.786Z,-1.04
2023-02-14T08:12:02.404Z,-0.84
2023-02-14T08:14:29.432Z,-0.62
2023-02-14T08:16:56.444Z,-0.50
2023-02-14T08:19:22.993Z,-0.44
2023-02-14T08:21:49.617Z,-0.29
2023-02-14T08:24:16.190Z,-0.53
2023-02-14T08:26:44.222Z,-0.38
2023-02-14T08:29:10.743Z,-0.94
2023-02-14T08:31:37.430Z,0.08
2023-02-14T08:34:04.551Z,0.17
2023-02-14T08:36:31.894Z,0.29
2023-02-14T08:38:58.814Z,0.24
2023-02-14T08:41:25.533Z,0.40
2023-02-14T08:43:53.556Z,0.54
2023-02-14T08:46:20.408Z,0.40
2023-02-14T08:48:47.035Z,0.70
2023-02-14T08:51:16.682Z,0.71
2023-02-14T08:53:44.107Z,0.84
2023-02-14T08:56:15.381Z,0.94
2023-02-14T08:58:42.239Z,0.89
2023-02-14T09:01:11.458Z,1.12
2023-02-14T09:03:38.666Z,1.23
2023-02-14T09:06:06.628Z,1.33
2023-02-14T09:08:33.498Z,1.50
2023-02-14T09:11:00.621Z,1.60
2023-02-14T09:13:27.445Z,1.77
2023-02-14T09:15:55.487Z,1.85
2023-02-14T09:18:23.579Z,1.72
2023-02-14T09:20:50.102Z,2.21
2023-02-14T09:23:17.140Z,2.42
2023-02-14T09:25:43.952Z,2.33
2023-02-14T09:28:10.851Z,2.77
2023-02-14T09:30:37.403Z,2.88
2023-02-14T09:33:04.089Z,3.04
2023-02-14T09:35:32.458Z,3.23
2023-02-14T09:37:59.210Z,3.41
2023-02-14T09:40:25.921Z,3.46
2023-02-14T09:43:02.293Z,3.76
2023-02-14T09:45:31.202Z,4.01
2023-02-14T09:48:02.312Z,4.21
2023-02-14T09:50:33.843Z,4.39
2023-02-14T09:53:05.884Z,4.48
2023-02-14T09:55:39.680Z,4.72
2023-02-14T09:58:15.154Z,4.97
2023-02-14T10:00:46.647Z,5.08
2023-02-14T10:03:41.562Z,5.31
2023-02-14T10:06:26.190Z,5.44
2023-02-14T10:09:02.679Z,5.65
2023-02-14T10:11:29.985Z,5.66
2023-02-14T10:14:02.111Z,5.87
2023-02-14T10:16:33.375Z,6.12
2023-02-14T10:19:03.827Z,6.36
2023-02-14T10:21:39.875Z,6.56
2023-02-14T10:24:13.797Z,6.66
2023-02-14T10:26:40.787Z,6.75
2023-02-14T10:29:12.758Z,6.89
2023-02-14T10:31:44.804Z,6.97
2023-02-14T10:34:20.604Z,7.09
2023-02-14T10:37:00.500Z,7.07
2023-02-14T10:39:42.970Z,7.16
2023-02-14T10:42:21.720Z,7.64
2023-02-14T10:44:56.194Z,7.81
2023-02-14T10:47:41.455Z,7.88
2023-02-14T10:50:16.664Z,7.97
2023-02-14T10:52:52.839Z,8.10
2023-02-14T10:55:32.397Z,8.18
2023-02-14T10:58:04.092Z,8.30
2023-02-14T11:00:34.136Z,8.45
2023-02-14T11:03:06.014Z,8.58
2023-02-14T11:05:35.542Z,8.70
2023-02-14T11:08:14.269Z,8.61
2023-02-14T11:10:40.994Z,8.86
2023-02-14T11:13:27.654Z,8.97
2023-02-14T11:15:59.670Z,9.05
2023-02-14T11:18:27.981Z,9.09
2023-02-14T11:21:02.663Z,9.25
2023-02-14T11:23:34.947Z,9.34
2023-02-14T11:26:02.983Z,9.37
2023-02-14T11:28:29.778Z,9.48
2023-02-14T11:30:56.595Z,9.53
2023-02-14T11:33:31.560Z,9.63
2023-02-14T11:35:59.608Z,9.66
2023-02-14T11:38:29.706Z,9.78
2023-02-14T11:40:59.361Z,9.89
2023-02-14T11:43:34.448Z,9.92
2023-02-14T11:46:08.000Z,9.79
2023-02-14T11:48:38.684Z,9.91
2023-02-14T11:51:08.070Z,9.95
2023-02-14T11:53:44.478Z,10.05
2023-02-14T11:56:14.065Z,10.13
2023-02-14T11:58:47.800Z,10.16
2023-02-14T12:01:23.281Z,10.04
2023-02-14T12:03:52.285Z,10.25
2023-02-14T12:06:24.783Z,10.38
2023-02-14T12:08:51.687Z,10.13
2023-02-14T12:11:21.905Z,10.36
2023-02-14T12:13:53.146Z,10.52
2023-02-14T12:16:24.130Z,10.48
2023-02-14T12:18:56.113Z,10.61
2023-02-14T12:21:47.204Z,10.69
2023-02-14T12:24:26.038Z,10.69
2023-02-14T12:27:02.174Z,10.64
2023-02-14T12:29:35.211Z,10.78
2023-02-14T12:32:11.818Z,10.56
2023-02-14T12:34:38.521Z,10.80
2023-02-14T12:37:17.172Z,10.80
2023-02-14T12:39:58.971Z,10.75
2023-02-14T12:42:41.987Z,10.92
2023-02-14T12:45:19.839Z,11.01
2023-02-14T12:47:58.231Z,11.01
2023-02-14T12:50:43.088Z,11.08
2023-02-14T12:53:45.416Z,11.02
2023-02-14T12:56:21.042Z,11.32
2023-02-14T12:58:58.503Z,11.47
2023-02-14T13:01:38.754Z,11.50
2023-02-14T13:04:56.526Z,11.52
2023-02-14T13:07:36.232Z,11.64
2023-02-14T13:10:13.819Z,11.65
2023-02-14T13:12:49.211Z,11.69
2023-02-14T13:15:27.393Z,11.76
2023-02-14T13:17:58.666Z,11.85
2023-02-14T13:20:39.544Z,11.85
2023-02-14T13:23:13.249Z,11.88
2023-02-14T13:25:42.326Z,11.91
2023-02-14T13:28:13.565Z,11.96
2023-02-14T13:30:41.610Z,11.78
2023-02-14T13:33:14.401Z,11.96
2023-02-14T13:35:41.746Z,12.04
2023-02-14T13:38:15.849Z,12.03
2023-02-14T13:40:43.009Z,12.01
2023-02-14T13:43:09.558Z,12.03
2023-02-14T13:45:55.653Z,11.92
2023-02-14T13:48:25.335Z,11.83
2023-02-14T13:50:55.018Z,11.85
2023-02-14T13:53:37.301Z,11.99
2023-02-14T13:56:06.104Z,12.05
2023-02-14T13:58:33.356Z,12.09
2023-02-14T14:01:29.169Z,12.14
2023-02-14T14:03:58.076Z,12.09
2023-02-14T14:06:24.636Z,12.14
2023-02-14T14:08:53.840Z,12.20
2023-02-14T14:11:57.160Z,12.35
2023-02-14T14:14:35.673Z,12.36
2023-02-14T14:17:18.553Z,12.36
2023-02-14T14:19:47.123Z,12.17
2023-02-14T14:22:14.997Z,12.12
2023-02-14T14:24:52.849Z,12.13
2023-02-14T14:27:22.669Z,12.11
2023-02-14T14:29:51.882Z,12.05
2023-02-14T14:32:24.865Z,11.99
2023-02-14T14:34:54.333Z,11.94
2023-02-14T14:37:23.081Z,11.95
2023-02-14T14:39:51.513Z,11.96
2023-02-14T14:42:19.002Z,12.03
2023-02-14T14:44:48.236Z,11.99
2023-02-14T14:47:17.332Z,12.06
2023-02-14T14:49:45.879Z,11.73
2023-02-14T14:52:32.907Z,11.94
2023-02-14T14:55:01.968Z,11.80
2023-02-14T14:57:28.978Z,11.62
2023-02-14T15:00:21.232Z,11.55
2023-02-14T15:02:59.363Z,11.42
2023-02-14T15:05:29.755Z,11.45
2023-02-14T15:07:56.358Z,11.53
2023-02-14T15:10:24.717Z,11.54
2023-02-14T15:12:53.124Z,11.56
2023-02-14T15:15:19.740Z,11.60
2023-02-14T15:17:46.875Z,11.63
2023-02-14T15:20:18.811Z,11.53
2023-02-14T15:22:49.840Z,11.36
2023-02-14T15:25:19.840Z,11.35
2023-02-14T15:27:47.492Z,11.31
2023-02-14T15:30:23.466Z,11.30
2023-02-14T15:32:51.855Z,11.26
2023-02-14T15:35:23.649Z,11.07
2023-02-14T15:37:51.994Z,10.85
2023-02-14T15:40:22.981Z,10.72
2023-02-14T15:42:52.056Z,10.68
2023-02-14T15:45:22.872Z,10.41
2023-02-14T15:47:52.031Z,10.49
2023-02-14T15:50:21.113Z,10.49
2023-02-14T15:52:48.687Z,10.51
2023-02-14T15:55:19.033Z,10.52
2023-02-14T15:57:52.329Z,10.43
2023-02-14T16:00:20.629Z,10.18
2023-02-14T16:02:52.975Z,10.09
2023-02-14T16:05:22.201Z,10.14
2023-02-14T16:08:00.090Z,10.00
2023-02-14T16:10:30.382Z,9.88
2023-02-14T16:13:00.570Z,9.77
2023-02-14T16:15:29.266Z,9.71
2023-02-14T16:17:55.946Z,9.57
2023-02-14T16:20:28.038Z,9.47
2023-02-14T16:23:17.309Z,9.17
2023-02-14T16:25:46.265Z,8.96
2023-02-14T16:28:13.981Z,8.63
2023-02-14T16:30:42.473Z,8.78
2023-02-14T16:33:14.472Z,8.70
2023-02-14T16:35:41.133Z,8.57
2023-02-14T16:38:13.354Z,8.37
2023-02-14T16:40:43.096Z,8.15
2023-02-14T16:43:13.980Z,8.10
2023-02-14T16:45:41.130Z,7.97
2023-02-14T16:48:09.449Z,7.63
2023-02-14T16:50:37.754Z,7.67
2023-02-14T16:53:04.766Z,7.66
2023-02-14T16:55:31.751Z,7.50
2023-02-14T16:58:00.772Z,7.45
2023-02-14T17:00:28.708Z,7.34
2023-02-14T17:02:55.821Z,7.39
2023-02-14T17:05:22.430Z,7.24
2023-02-14T17:07:48.982Z,7.19
2023-02-14T17:10:19.228Z,6.98
2023-02-14T17:12:48.284Z,6.96
2023-02-14T17:15:17.819Z,6.86
2023-02-14T17:17:47.792Z,6.71
2023-02-14T17:20:14.509Z,6.61
2023-02-14T17:22:41.317Z,6.52
2023-02-14T17:25:09.110Z,6.42
2023-02-14T17:27:35.621Z,6.32
2023-02-14T17:30:02.294Z,6.18
2023-02-14T17:32:28.948Z,6.14
2023-02-14T17:34:56.951Z,6.06
2023-02-14T17:37:23.465Z,6.00
2023-02-14T17:39:50.052Z,5.99
2023-02-14T17:42:16.585Z,5.89
2023-02-14T17:44:43.138Z,5.83
2023-02-14T17:47:09.693Z,5.75
2023-02-14T17:49:36.266Z,5.65
2023-02-14T17:52:04.470Z,5.58
2023-02-14T17:54:31.156Z,5.48
2023-02-14T17:56:57.695Z,5.46
2023-02-14T17:59:24.361Z,5.40
2023-02-14T18:04:17.526Z,5.30
2023-02-14T18:06:44.247Z,5.25
2023-02-14T18:09:12.140Z,5.19
2023-02-14T18:11:40.568Z,5.03
2023-02-14T18:14:07.072Z,5.06
2023-02-14T18:16:34.123Z,5.07
2023-02-14T18:19:02.811Z,5.04
2023-02-14T18:21:32.996Z,4.92
2023-02-14T18:23:59.698Z,4.59
2023-02-14T18:26:27.615Z,4.88
2023-02-14T18:28:54.218Z,4.82
2023-02-14T18:31:21.625Z,4.69
2023-02-14T18:33:50.165Z,4.48
2023-02-14T18:36:19.092Z,4.58
2023-02-14T18:38:47.680Z,4.50
2023-02-14T18:41:16.404Z,4.45
2023-02-14T18:43:44.615Z,4.38
2023-02-14T18:46:13.368Z,4.40
2023-02-14T18:48:40.526Z,4.43
2023-02-14T18:51:07.841Z,4.32
2023-02-14T18:53:34.812Z,4.25
2023-02-14T18:56:04.405Z,4.23
2023-02-14T18:58:31.009Z,4.16
2023-02-14T19:00:59.258Z,4.07
2023-02-14T19:03:26.030Z,4.04
2023-02-14T19:05:52.537Z,3.99
2023-02-14T19:08:19.161Z,3.93
2023-02-14T19:10:45.666Z,3.90
2023-02-14T19:13:12.261Z,3.80
2023-02-14T19:15:38.781Z,3.77
2023-02-14T19:18:07.344Z,3.74
2023-02-14T19:20:33.885Z,3.71
2023-02-14T19:23:00.797Z,3.65
2023-02-14T19:25:27.356Z,3.58
2023-02-14T19:27:54.549Z,3.53
2023-02-14T19:30:21.252Z,3.47
2023-02-14T19:32:48.047Z,3.29
2023-02-14T19:35:16.210Z,3.28
2023-02-14T19:37:42.837Z,3.31
2023-02-14T19:40:10.230Z,3.24
2023-02-14T19:42:36.888Z,3.19
2023-02-14T19:45:04.628Z,3.15
2023-02-14T19:47:46.192Z,3.04
2023-02-14T19:50:13.962Z,2.94
2023-02-14T19:52:41.818Z,2.91
2023-02-14T19:55:15.840Z,2.87
2023-02-14T19:57:44.513Z,2.77
2023-02-14T20:00:12.575Z,2.72
2023-02-14T20:02:39.775Z,2.67
2023-02-14T20:05:06.793Z,2.42
2023-02-14T20:07:33.476Z,2.53
2023-02-14T20:10:01.398Z,2.44
2023-02-14T20:12:28.189Z,2.40
2023-02-14T20:14:54.860Z,2.22
2023-02-14T20:17:21.535Z,2.31
2023-02-14T20:19:48.134Z,2.19
2023-02-14T20:22:14.717Z,2.19
2023-02-14T20:24:41.439Z,2.11
2023-02-14T20:27:09.606Z,1.95
2023-02-14T20:29:38.006Z,1.94
2023-02-14T20:32:05.395Z,1.89
2023-02-14T20:34:31.989Z,1.77
2023-02-14T20:36:58.853Z,1.76
2023-02-14T20:39:29.552Z,1.68
2023-02-14T20:41:56.183Z,1.64
2023-02-14T20:44:24.272Z,1.54
2023-02-14T20:46:52.444Z,1.45
2023-02-14T20:49:20.069Z,1.36
2023-02-14T20:51:47.493Z,1.30
2023-02-14T20:54:14.211Z,1.27
2023-02-14T20:56:40.834Z,1.25
2023-02-14T20:59:07.432Z,1.17
2023-02-14T21:01:36.217Z,1.12
2023-02-14T21:04:03.072Z,1.17
2023-02-14T21:06:31.568Z,1.09
2023-02-14T21:08:58.791Z,1.05
2023-02-14T21:11:26.542Z,1.06
2023-02-14T21:13:55.535Z,1.11
2023-02-14T21:16:22.427Z,1.03
2023-02-14T21:18:52.673Z,0.98
2023-02-14T21:21:22.043Z,0.91
2023-02-14T21:23:49.379Z,0.88
2023-02-14T21:26:16.160Z,0.83
2023-02-14T21:28:42.715Z,0.74
2023-02-14T21:31:13.197Z,-0.05
2023-02-14T21:33:40.107Z,0.66
2023-02-14T21:36:10.010Z,0.60
2023-02-14T21:38:37.043Z,0.47
2023-02-14T21:41:05.563Z,0.44
2023-02-14T21:43:34.576Z,0.38
2023-02-14T21:46:03.412Z,0.53
2023-02-14T21:48:30.250Z,0.45
2023-02-14T21:50:56.857Z,0.38
2023-02-14T21:53:25.117Z,0.30
2023-02-14T21:55:51.651Z,0.26
2023-02-14T21:58:18.287Z,0.23
2023-02-14T22:00:44.966Z,0.29
2023-02-14T22:03:12.384Z,0.22
2023-02-14T22:05:39.744Z,0.15
2023-02-14T22:08:06.296Z,0.09
2023-02-14T22:10:34.196Z,-0.02
2023-02-14T22:13:00.771Z,0.03
2023-02-14T22:15:27.288Z,0.01
2023-02-14T22:17:53.844Z,0.00
2023-02-14T22:20:20.425Z,-0.07
2023-02-14T22:22:47.033Z,-0.10
2023-02-14T22:25:13.666Z,-0.05
2023-02-14T22:27:41.687Z,-0.07
2023-02-14T22:30:08.805Z,-0.08
2023-02-14T22:32:35.433Z,-0.15
2023-02-14T22:35:01.987Z,-0.22
2023-02-14T22:37:28.602Z,-0.28
2023-02-14T22:39:55.145Z,-0.26
2023-02-14T22:42:21.788Z,-0.29
2023-02-14T22:44:49.774Z,-0.27
2023-02-14T22:47:16.392Z,-0.31
2023-02-14T22:49:42.952Z,-0.35
2023-02-14T22:52:09.496Z,-0.39
2023-02-14T22:54:36.042Z,-0.40
2023-02-14T22:57:02.963Z,-0.40
2023-02-14T22:59:30.514Z,-0.46
2023-02-14T23:01:58.840Z,-0.47
2023-02-14T23:04:26.572Z,-0.47
2023-02-14T23:06:53.673Z,-0.46
2023-02-14T23:09:20.665Z,-0.55
2023-02-14T23:11:49.045Z,-0.47
2023-02-14T23:14:18.159Z,-0.42
2023-02-14T23:16:45.792Z,-0.56
2023-02-14T23:19:15.529Z,-0.49
2023-02-14T23:21:42.151Z,-0.52
2023-02-14T23:24:08.653Z,-0.60
2023-02-14T23:26:37.298Z,-0.59
2023-02-14T23:29:03.913Z,-0.67
2023-02-14T23:31:30.711Z,-0.72
2023-02-14T23:33:57.316Z,-0.76
2023-02-14T23:36:25.324Z,-0.80
2023-02-14T23:38:51.884Z,-0.90
2023-02-14T23:41:18.496Z,-0.86
2023-02-14T23:43:45.013Z,-0.82
2023-02-14T23:46:11.591Z,-0.77
2023-02-14T23:48:38.255Z,-0.91
2023-02-14T23:51:04.901Z,-0.79
2023-02-14T23:53:32.990Z,-0.79
2023-02-14T23:56:03.258Z,-0.82
2023-02-14T23:58:29.882Z,-0.84
